sensor_id;sensor_type;location;lat;lon;timestamp;pressure;altitude;pressure_sealevel;temperature;humidity
8075;BME280;4080;42.676;23.372;2023-02-13T18:57:33;96610.13;;;4.60;100.00
8075;BME280;4080;42.676;23.372;2023-02-13T18:59:59;96608.97;;;4.41;100.00
8075;BME280;4080;42.676;23.372;2023-02-13T19:02:26;96592.47;;;4.13;100.00
8075;BME280;4080;42.676;23.372;2023-02-13T19:05:00;96615.34;;;4.11;100.00
8075;BME280;4080;42.676;23.372;2023-02-13T19:07:27;96616.84;;;3.98;100.00
8075;BME280;4080;42.676;23.372;2023-02-13T19:09:54;96625.22;;;3.94;100.00
8075;BME280;4080;42.676;23.372;2023-02-13T19:12:21;96616.72;;;3.85;100.00
8075;BME280;4080;42.676;23.372;2023-02-13T19:14:49;96611.81;;;3.76;100.00
8075;BME280;4080;42.676;23.372;2023-02-13T19:17:16;96569.59;;;3.51;100.00
8075;BME280;4080;42.676;23.372;2023-02-13T19:19:43;96617.81;;;3.76;100.00
8075;BME280;4080;42.676;23.372;2023-02-13T19:22:10;96612.97;;;3.73;100.00
8075;BME280;4080;42.676;23.372;2023-02-13T19:24:37;96620.19;;;3.71;100.00
8075;BME280;4080;42.676;23.372;2023-02-13T19:27:03;96616.78;;;3.70;100.00
8075;BME280;4080;42.676;23.372;2023-02-13T19:29:30;96611.56;;;3.70;100.00
8075;BME280;4080;42.676;23.372;2023-02-13T19:31:58;96609.75;;;3.71;100.00
8075;BME280;4080;42.676;23.372;2023-02-13T19:34:25;96616.84;;;3.77;100.00
8075;BME280;4080;42.676;23.372;2023-02-13T19:36:52;96610.19;;;3.74;100.00
8075;BME280;4080;42.676;23.372;2023-02-13T19:39:18;96612.97;;;3.73;100.00
8075;BME280;4080;42.676;23.372;2023-02-13T19:41:45;96596.00;;;3.62;100.00
8075;BME280;4080;42.676;23.372;2023-02-13T19:44:12;96607.50;;;3.68;100.00
8075;BME280;4080;42.676;23.372;2023-02-13T19:46:38;96607.84;;;3.65;100.00
8075;BME280;4080;42.676;23.372;2023-02-13T19:49:07;96589.09;;;3.55;100.00
8075;BME280;4080;42.676;23.372;2023-02-13T19:51:34;96606.25;;;3.64;100.00
8075;BME280;4080;42.676;23.372;2023-02-13T19:54:03;96607.41;;;3.61;100.00
8075;BME280;4080;42.676;23.372;2023-02-13T19:56:31;96592.31;;;3.57;100.00
8075;BME280;4080;42.676;23.372;2023-02-13T19:58:58;96600.41;;;3.62;100.00
8075;BME280;4080;42.676;23.372;2023-02-13T20:01:27;96588.47;;;3.53;100.00
8075;BME280;4080;42.676;23.372;2023-02-13T20:03:54;96585.84;;;3.53;100.00
8075;BME280;4080;42.676;23.372;2023-02-13T20:06:28;96601.75;;;3.58;100.00
8075;BME280;4080;42.676;23.372;2023-02-13T20:08:56;96547.88;;;3.29;100.00
8075;BME280;4080;42.676;23.372;2023-02-13T20:11:24;96592.31;;;3.57;100.00
8075;BME280;4080;42.676;23.372;2023-02-13T20:13:52;96454.91;;;2.64;100.00
8075;BME280;4080;42.676;23.372;2023-02-13T20:16:20;96588.72;;;3.58;100.00
8075;BME280;4080;42.676;23.372;2023-02-13T20:18:49;96571.19;;;3.52;100.00
8075;BME280;4080;42.676;23.372;2023-02-13T20:21:16;96581.81;;;3.50;100.00
8075;BME280;4080;42.676;23.372;2023-02-13T20:23:47;96588.53;;;3.59;100.00
8075;BME280;4080;42.676;23.372;2023-02-13T20:26:15;96579.09;;;3.58;100.00
8075;BME280;4080;42.676;23.372;2023-02-13T20:28:43;96583.31;;;3.59;100.00
8075;BME280;4080;42.676;23.372;2023-02-13T20:31:11;96570.22;;;3.53;100.00
8075;BME280;4080;42.676;23.372;2023-02-13T20:33:38;96584.31;;;3.58;100.00
8075;BME280;4080;42.676;23.372;2023-02-13T20:36:10;96578.47;;;3.56;100.00
8075;BME280;4080;42.676;23.372;2023-02-13T20:38:37;96574.25;;;3.55;99.90
8075;BME280;4080;42.676;23.372;2023-02-13T20:41:09;96573.25;;;3.56;99.82
8075;BME280;4080;42.676;23.372;2023-02-13T20:43:36;96544.00;;;3.39;99.27
8075;BME280;4080;42.676;23.372;2023-02-13T20:46:03;96568.22;;;3.55;99.16
8075;BME280;4080;42.676;23.372;2023-02-13T20:48:30;96550.88;;;3.47;98.89
8075;BME280;4080;42.676;23.372;2023-02-13T20:50:57;96567.41;;;3.54;98.47
8075;BME280;4080;42.676;23.372;2023-02-13T20:53:24;96571.63;;;3.55;99.03
8075;BME280;4080;42.676;23.372;2023-02-13T20:55:51;96575.06;;;3.56;98.44
8075;BME280;4080;42.676;23.372;2023-02-13T20:58:20;96569.84;;;3.56;98.47
8075;BME280;4080;42.676;23.372;2023-02-13T21:00:46;96570.63;;;3.56;98.48
8075;BME280;4080;42.676;23.372;2023-02-13T21:03:13;96572.63;;;3.54;98.52
8075;BME280;4080;42.676;23.372;2023-02-13T21:05:40;96558.59;;;3.55;98.71
8075;BME280;4080;42.676;23.372;2023-02-13T21:08:06;96555.97;;;3.55;98.90
8075;BME280;4080;42.676;23.372;2023-02-13T21:10:36;96557.16;;;3.53;98.47
8075;BME280;4080;42.676;23.372;2023-02-13T21:13:03;96555.34;;;3.53;99.15
8075;BME280;4080;42.676;23.372;2023-02-13T21:15:31;96557.97;;;3.53;98.94
8075;BME280;4080;42.676;23.372;2023-02-13T21:17:58;96550.13;;;3.53;99.06
8075;BME280;4080;42.676;23.372;2023-02-13T21:20:26;96541.88;;;3.50;99.74
8075;BME280;4080;42.676;23.372;2023-02-13T21:22:53;96541.06;;;3.49;99.57
8075;BME280;4080;42.676;23.372;2023-02-13T21:25:19;96518.81;;;3.32;99.80
8075;BME280;4080;42.676;23.372;2023-02-13T21:27:46;96548.09;;;3.49;100.00
8075;BME280;4080;42.676;23.372;2023-02-13T21:30:13;96542.06;;;3.48;100.00
8075;BME280;4080;42.676;23.372;2023-02-13T21:32:41;96538.22;;;3.44;100.00
8075;BME280;4080;42.676;23.372;2023-02-13T21:35:08;96532.94;;;3.37;100.00
8075;BME280;4080;42.676;23.372;2023-02-13T21:37:35;96550.44;;;3.43;100.00
8075;BME280;4080;42.676;23.372;2023-02-13T21:40:02;96531.84;;;3.32;100.00
8075;BME280;4080;42.676;23.372;2023-02-13T21:42:28;96536.34;;;3.38;100.00
8075;BME280;4080;42.676;23.372;2023-02-13T21:44:55;96536.34;;;3.38;100.00
8075;BME280;4080;42.676;23.372;2023-02-13T21:47:22;96540.75;;;3.37;100.00
8075;BME280;4080;42.676;23.372;2023-02-13T21:49:50;96540.38;;;3.40;100.00
8075;BME280;4080;42.676;23.372;2023-02-13T21:52:17;96544.00;;;3.39;100.00
8075;BME280;4080;42.676;23.372;2023-02-13T21:54:44;96532.56;;;3.40;100.00
8075;BME280;4080;42.676;23.372;2023-02-13T21:57:11;96535.19;;;3.40;100.00
8075;BME280;4080;42.676;23.372;2023-02-13T21:59:37;96530.94;;;3.39;100.00
8075;BME280;4080;42.676;23.372;2023-02-13T22:02:04;96528.97;;;3.41;100.00
8075;BME280;4080;42.676;23.372;2023-02-13T22:04:31;96529.78;;;3.42;100.00
8075;BME280;4080;42.676;23.372;2023-02-13T22:06:59;96509.38;;;3.31;100.00
8075;BME280;4080;42.676;23.372;2023-02-13T22:09:25;96523.75;;;3.41;100.00
8075;BME280;4080;42.676;23.372;2023-02-13T22:11:52;96514.31;;;3.40;100.00
8075;BME280;4080;42.676;23.372;2023-02-13T22:14:20;96523.13;;;3.39;100.00
8075;BME280;4080;42.676;23.372;2023-02-13T22:16:49;96511.88;;;3.39;100.00
8075;BME280;4080;42.676;23.372;2023-02-13T22:19:16;96520.72;;;3.38;100.00
8075;BME280;4080;42.676;23.372;2023-02-13T22:21:44;96495.44;;;3.38;100.00
8075;BME280;4080;42.676;23.372;2023-02-13T22:24:12;96493.63;;;3.39;100.00
8075;BME280;4080;42.676;23.372;2023-02-13T22:26:41;96495.06;;;3.41;100.00
8075;BME280;4080;42.676;23.372;2023-02-13T22:29:11;96481.31;;;3.33;100.00
8075;BME280;4080;42.676;23.372;2023-02-13T22:31:38;96474.16;;;3.20;100.00
8075;BME280;4080;42.676;23.372;2023-02-13T22:34:05;96460.31;;;3.20;100.00
8075;BME280;4080;42.676;23.372;2023-02-13T22:36:33;96494.06;;;3.42;100.00
8075;BME280;4080;42.676;23.372;2023-02-13T22:39:02;96491.44;;;3.42;100.00
8075;BME280;4080;42.676;23.372;2023-02-13T22:41:31;96495.47;;;3.45;100.00
8075;BME280;4080;42.676;23.372;2023-02-13T22:43:57;96496.28;;;3.46;100.00
8075;BME280;4080;42.676;23.372;2023-02-13T22:46:26;96494.88;;;3.43;100.00
8075;BME280;4080;42.676;23.372;2023-02-13T22:48:53;96494.69;;;3.45;100.00
8075;BME280;4080;42.676;23.372;2023-02-13T22:51:22;96467.22;;;3.27;100.00
8075;BME280;4080;42.676;23.372;2023-02-13T22:53:51;96486.03;;;3.44;100.00
8075;BME280;4080;42.676;23.372;2023-02-13T22:56:18;96486.22;;;3.42;100.00
8075;BME280;4080;42.676;23.372;2023-02-13T22:58:46;96483.63;;;3.42;100.00
8075;BME280;4080;42.676;23.372;2023-02-13T23:01:14;96478.41;;;3.42;100.00
8075;BME280;4080;42.676;23.372;2023-02-13T23:03:41;96478.78;;;3.39;100.00
8075;BME280;4080;42.676;23.372;2023-02-13T23:06:11;96483.81;;;3.41;100.00
8075;BME280;4080;42.676;23.372;2023-02-13T23:08:38;96470.16;;;3.39;100.00
8075;BME280;4080;42.676;23.372;2023-02-13T23:11:06;96475.91;;;3.34;100.00
8075;BME280;4080;42.676;23.372;2023-02-13T23:13:52;96466.59;;;3.25;100.00
8075;BME280;4080;42.676;23.372;2023-02-13T23:16:19;96468.81;;;3.28;100.00
8075;BME280;4080;42.676;23.372;2023-02-13T23:18:49;96467.59;;;3.24;100.00
8075;BME280;4080;42.676;23.372;2023-02-13T23:21:15;96478.50;;;3.34;100.00
8075;BME280;4080;42.676;23.372;2023-02-13T23:23:42;96478.06;;;3.31;100.00
8075;BME280;4080;42.676;23.372;2023-02-13T23:26:09;96485.53;;;3.34;100.00
8075;BME280;4080;42.676;23.372;2023-02-13T23:28:36;96484.34;;;3.36;100.00
8075;BME280;4080;42.676;23.372;2023-02-13T23:31:04;96478.16;;;3.37;100.00
8075;BME280;4080;42.676;23.372;2023-02-13T23:33:31;96481.38;;;3.39;100.00
8075;BME280;4080;42.676;23.372;2023-02-13T23:35:57;96475.56;;;3.37;100.00
8075;BME280;4080;42.676;23.372;2023-02-13T23:38:24;96467.63;;;3.31;100.00
8075;BME280;4080;42.676;23.372;2023-02-13T23:40:51;96470.88;;;3.33;100.00
8075;BME280;4080;42.676;23.372;2023-02-13T23:43:17;96471.06;;;3.31;100.00
8075;BME280;4080;42.676;23.372;2023-02-13T23:45:44;96465.03;;;3.31;100.00
8075;BME280;4080;42.676;23.372;2023-02-13T23:48:12;96469.56;;;3.22;100.00
8075;BME280;4080;42.676;23.372;2023-02-13T23:50:40;96470.25;;;3.31;100.00
8075;BME280;4080;42.676;23.372;2023-02-13T23:53:06;96483.22;;;3.24;100.00
8075;BME280;4080;42.676;23.372;2023-02-13T23:55:33;96486.72;;;3.10;100.00
8075;BME280;4080;42.676;23.372;2023-02-13T23:58:00;96487.53;;;3.10;100.00
